Time;durP1;ratioP1;P1;durP2;ratioP2;P2;SDS_P1;SDS_P2;PMS_P1;PMS_P2;Temp;Humidity;BMP_temperature;BMP_pressure;BME280_temperature;BME280_humidity;BME280_pressure;Samples;Min_cycle;Max_cycle;Signal;HPM_P1;HPM_P2
2021/08/18 00:01:23;;;;;;;23.70;7.73;;;;;;;22.73;51.41;100111.03;126390;1099;104158;-80
2021/08/18 00:03:53;;;;;;;17.15;7.95;;;;;;;22.70;53.38;100128.95;126302;1099;104155;-80
2021/08/18 00:06:24;;;;;;;19.57;8.07;;;;;;;22.64;54.35;100123.72;126343;1096;104149;-80
2021/08/18 00:08:57;;;;;;;18.00;8.13;;;;;;;22.58;54.30;100122.06;126360;1096;104245;-79
2021/08/18 00:11:28;;;;;;;17.17;7.83;;;;;;;22.52;54.37;100125.73;126262;1099;104156;-79
2021/08/18 00:13:58;;;;;;;18.87;8.30;;;;;;;22.50;55.60;100124.89;126368;1099;104143;-81
2021/08/18 00:16:31;;;;;;;20.15;8.55;;;;;;;22.46;56.72;100124.98;126275;1096;104133;-79
2021/08/18 00:19:02;;;;;;;21.03;8.47;;;;;;;22.40;56.86;100124.16;126392;1099;104156;-79
2021/08/18 00:21:33;;;;;;;17.63;7.93;;;;;;;22.40;57.23;100128.64;126326;1099;104352;-79
2021/08/18 00:24:03;;;;;;;17.67;8.37;;;;;;;22.37;56.65;100134.04;126309;1099;104328;-79
2021/08/18 00:26:34;;;;;;;19.93;7.80;;;;;;;22.35;57.01;100125.18;126297;1099;104155;-79
2021/08/18 00:29:04;;;;;;;17.87;8.73;;;;;;;22.34;57.06;100128.75;126312;1096;104280;-79
2021/08/18 00:31:36;;;;;;;17.70;8.43;;;;;;;22.34;57.17;100129.63;126368;1096;104344;-78
2021/08/18 00:34:06;;;;;;;16.10;7.73;;;;;;;22.39;57.33;100129.53;126324;1096;104149;-79
2021/08/18 00:36:38;;;;;;;17.00;7.43;;;;;;;22.41;56.79;100125.94;126216;1099;104309;-78
2021/08/18 00:39:09;;;;;;;17.37;8.53;;;;;;;22.42;57.59;100126.80;126335;1099;104232;-79
2021/08/18 00:41:40;;;;;;;19.50;8.40;;;;;;;22.41;57.83;100130.41;126356;1099;104155;-80
2021/08/18 00:44:11;;;;;;;16.57;7.70;;;;;;;22.39;57.92;100129.53;126347;1099;104246;-80
2021/08/18 00:46:53;;;;;;;17.57;8.20;;;;;;;22.37;59.26;100128.70;126247;1099;104220;-80
2021/08/18 00:49:24;;;;;;;20.93;8.40;;;;;;;22.35;59.00;100134.06;126315;1096;104573;-79
2021/08/18 00:51:58;;;;;;;17.67;7.97;;;;;;;22.33;58.03;100135.00;126380;1096;104270;-80
2021/08/18 00:54:29;;;;;;;18.12;8.33;;;;;;;22.34;58.64;100144.79;126352;1096;104208;-81
2021/08/18 00:57:01;;;;;;;16.77;7.67;;;;;;;22.34;59.02;100150.13;126312;1096;104134;-80
2021/08/18 00:59:34;;;;;;;19.57;8.30;;;;;;;22.30;58.55;100145.70;126325;1099;104178;-80
2021/08/18 01:02:06;;;;;;;16.37;7.80;;;;;;;22.29;59.20;100138.63;126291;1099;104165;-80
2021/08/18 01:04:37;;;;;;;16.55;8.28;;;;;;;22.24;59.71;100144.92;126338;1099;104181;-80
2021/08/18 01:07:08;;;;;;;19.20;8.57;;;;;;;22.22;59.56;100146.75;126285;1099;104134;-79
2021/08/18 01:09:39;;;;;;;14.30;7.53;;;;;;;22.19;59.82;100148.57;126366;1099;104147;-80
2021/08/18 01:12:13;;;;;;;16.90;8.13;;;;;;;22.17;60.13;100151.27;126341;1096;104576;-80
2021/08/18 01:14:44;;;;;;;17.60;7.90;;;;;;;22.15;60.63;100155.77;126248;1099;104271;-80
2021/08/18 01:17:15;;;;;;;18.30;7.67;;;;;;;22.13;59.97;100146.91;126263;1099;104147;-80
2021/08/18 01:19:45;;;;;;;17.63;7.80;;;;;;;22.13;60.27;100146.00;126324;1099;104271;-80
2021/08/18 01:22:16;;;;;;;14.70;7.47;;;;;;;22.15;60.78;100153.09;126352;1099;104740;-80
2021/08/18 01:24:46;;;;;;;14.60;7.07;;;;;;;22.16;60.58;100149.53;126314;1099;104275;-78
2021/08/18 01:27:17;;;;;;;16.10;7.77;;;;;;;22.16;61.27;100152.20;126265;1099;104371;-80
2021/08/18 01:29:49;;;;;;;17.73;8.37;;;;;;;22.13;61.29;100154.92;126381;1099;104239;-79
2021/08/18 01:32:19;;;;;;;17.20;7.43;;;;;;;22.08;61.63;100148.79;126282;1099;104217;-80
2021/08/18 01:34:50;;;;;;;15.75;7.65;;;;;;;22.04;61.37;100149.73;126329;1099;104144;-80
2021/08/18 01:37:21;;;;;;;16.07;7.37;;;;;;;22.04;61.44;100147.06;126341;1097;104226;-80
2021/08/18 01:39:51;;;;;;;14.55;7.50;;;;;;;22.04;61.72;100139.05;126286;1097;104441;-80
2021/08/18 01:42:22;;;;;;;16.83;7.10;;;;;;;22.03;61.96;100134.61;126353;1099;104226;-80
2021/08/18 01:44:54;;;;;;;14.60;7.43;;;;;;;22.03;60.97;100132.84;126347;1099;104563;-80
2021/08/18 01:47:25;;;;;;;15.50;7.23;;;;;;;22.03;61.63;100129.27;126280;1099;104136;-79
2021/08/18 01:49:56;;;;;;;17.70;7.50;;;;;;;22.03;61.25;100121.25;126335;1099;119033;-81
2021/08/18 01:52:27;;;;;;;16.73;8.00;;;;;;;22.04;61.54;100123.02;126292;1099;104341;-80
2021/08/18 01:54:59;;;;;;;15.93;7.10;;;;;;;22.01;61.36;100123.08;126360;1098;104237;-79
2021/08/18 01:57:30;;;;;;;13.33;7.43;;;;;;;21.98;61.10;100107.10;126340;1099;104217;-80
2021/08/18 02:00:00;;;;;;;14.20;7.37;;;;;;;21.99;61.58;100107.08;126306;1099;104185;-80
2021/08/18 02:02:31;;;;;;;17.27;7.37;;;;;;;21.99;61.85;100103.53;126286;1099;104168;-80
2021/08/18 02:05:02;;;;;;;17.33;7.80;;;;;;;21.98;61.99;100099.09;126286;1099;104618;-80
2021/08/18 02:07:33;;;;;;;15.03;7.37;;;;;;;21.96;61.62;100098.24;126372;1099;104153;-79
2021/08/18 02:10:04;;;;;;;19.50;7.63;;;;;;;21.97;62.24;100102.66;126300;1096;104290;-80
2021/08/18 02:12:37;;;;;;;13.07;7.37;;;;;;;21.97;62.25;100105.33;126354;1096;104171;-80
2021/08/18 02:15:10;;;;;;;12.65;7.12;;;;;;;22.00;61.47;100092.82;126367;1096;104134;-80
2021/08/18 02:17:40;;;;;;;20.00;7.20;;;;;;;22.06;61.95;100095.38;126307;1099;104172;-79
2021/08/18 02:20:15;;;;;;;15.90;7.07;;;;;;;22.11;61.54;100103.31;126239;1099;104281;-78
2021/08/18 02:22:46;;;;;;;15.87;7.53;;;;;;;22.12;62.07;100107.73;126358;1099;104246;-80
2021/08/18 02:25:17;;;;;;;15.90;7.23;;;;;;;22.12;62.33;100114.87;126331;1099;104221;-80
2021/08/18 02:27:51;;;;;;;16.10;7.03;;;;;;;22.12;62.26;100113.07;126319;1099;104146;-80
2021/08/18 02:30:24;;;;;;;12.00;6.57;;;;;;;22.17;62.06;100121.87;126266;1098;104296;-80
2021/08/18 02:32:55;;;;;;;18.30;7.50;;;;;;;22.17;62.40;100111.19;126270;1096;104146;-78
2021/08/18 02:35:27;;;;;;;15.33;6.73;;;;;;;22.18;62.17;100112.09;126298;1099;104235;-79
2021/08/18 02:37:59;;;;;;;16.37;7.23;;;;;;;22.19;62.18;100103.14;126357;1096;104239;-80
2021/08/18 02:40:32;;;;;;;15.88;7.22;;;;;;;22.19;61.60;100113.83;126291;1096;104140;-80
2021/08/18 02:43:03;;;;;;;15.77;6.93;;;;;;;22.21;62.51;100120.92;126311;1099;104169;-80
2021/08/18 02:45:35;;;;;;;14.73;7.43;;;;;;;22.23;61.78;100118.22;126333;1099;104233;-80
2021/08/18 02:48:08;;;;;;;18.57;7.43;;;;;;;22.22;62.03;100120.03;126307;1099;104165;-79
2021/08/18 02:50:41;;;;;;;15.90;7.50;;;;;;;22.20;61.98;100121.82;126293;1099;105366;-80
2021/08/18 02:53:11;;;;;;;11.87;6.90;;;;;;;22.19;62.21;100122.75;126361;1096;104150;-80
2021/08/18 02:55:42;;;;;;;18.70;7.37;;;;;;;22.18;62.28;100120.98;126350;1095;104245;-80
2021/08/18 02:58:14;;;;;;;15.63;6.80;;;;;;;22.17;61.85;100118.33;126326;1099;104140;-79
2021/08/18 03:00:45;;;;;;;17.53;7.10;;;;;;;22.17;62.49;100116.53;126273;1099;105180;-79
2021/08/18 03:03:15;;;;;;;14.70;7.00;;;;;;;22.17;62.67;100126.35;126345;1099;104156;-80
2021/08/18 03:05:46;;;;;;;17.90;7.87;;;;;;;22.18;62.90;100126.33;126346;1096;104236;-81
2021/08/18 03:08:16;;;;;;;15.17;7.30;;;;;;;22.21;62.61;100128.94;126294;1098;104147;-80
2021/08/18 03:10:49;;;;;;;15.37;7.17;;;;;;;22.22;62.72;100132.48;126289;1098;104137;-79
2021/08/18 03:13:20;;;;;;;13.93;6.90;;;;;;;22.21;63.00;100136.95;126351;1099;104265;-80
2021/08/18 03:15:50;;;;;;;17.23;7.67;;;;;;;22.20;62.82;100136.98;126359;1099;104140;-79
2021/08/18 03:18:21;;;;;;;18.65;7.60;;;;;;;22.18;62.89;100145.03;126282;1099;104210;-79
2021/08/18 03:20:52;;;;;;;15.00;7.07;;;;;;;22.18;63.47;100150.38;126290;1098;104284;-80
2021/08/18 03:23:22;;;;;;;13.60;7.17;;;;;;;22.16;62.55;100146.86;126374;1096;104617;-80
2021/08/18 03:25:53;;;;;;;15.40;7.23;;;;;;;22.14;63.50;100143.30;126339;1098;104217;-80
2021/08/18 03:28:24;;;;;;;16.30;7.30;;;;;;;22.14;63.45;100151.33;126372;1099;104220;-80
2021/08/18 03:30:55;;;;;;;15.30;7.50;;;;;;;22.15;64.08;100157.57;126317;1098;104185;-79
2021/08/18 03:33:25;;;;;;;13.13;7.17;;;;;;;22.14;63.95;100140.64;126331;1099;104194;-80
2021/08/18 03:35:56;;;;;;;14.67;7.23;;;;;;;22.17;63.28;100132.56;126357;1099;104664;-79
2021/08/18 03:38:26;;;;;;;15.40;7.17;;;;;;;22.20;63.65;100131.64;126286;1099;104136;-78
2021/08/18 03:40:57;;;;;;;15.00;6.87;;;;;;;22.22;63.92;100132.48;126267;1097;104230;-78
2021/08/18 03:43:28;;;;;;;12.73;6.53;;;;;;;22.23;63.44;100121.77;126336;1099;104262;-79
2021/08/18 03:45:58;;;;;;;16.50;6.90;;;;;;;22.27;63.53;100127.96;126318;1099;104143;-79
2021/08/18 03:48:29;;;;;;;16.77;7.33;;;;;;;22.29;64.40;100126.13;126347;1098;104146;-77
2021/08/18 03:50:59;;;;;;;13.50;7.43;;;;;;;22.29;64.07;100136.81;126248;1099;104242;-77
2021/08/18 03:53:31;;;;;;;15.07;6.90;;;;;;;22.31;63.94;100142.17;126320;1099;104159;-77
2021/08/18 03:56:02;;;;;;;16.33;6.60;;;;;;;22.27;64.16;100133.30;126276;1099;104168;-79
2021/08/18 03:58:33;;;;;;;18.20;6.75;;;;;;;22.24;64.21;100144.92;126281;1099;104136;-79
2021/08/18 04:01:06;;;;;;;13.93;6.77;;;;;;;22.22;64.89;100152.09;126231;1096;105216;-77
2021/08/18 04:03:36;;;;;;;13.53;6.87;;;;;;;22.21;63.96;100155.66;126199;1096;104137;-77
2021/08/18 04:06:07;;;;;;;15.73;7.00;;;;;;;22.23;65.56;100158.31;126225;1099;104256;-76
2021/08/18 04:08:38;;;;;;;13.90;6.67;;;;;;;22.19;65.21;100165.51;126252;1099;104213;-78
2021/08/18 04:11:11;;;;;;;14.00;6.40;;;;;;;22.16;64.89;100170.91;126202;1096;104294;-77
2021/08/18 04:13:42;;;;;;;13.88;7.05;;;;;;;22.16;65.22;100170.91;126202;1099;104143;-78
2021/08/18 04:16:13;;;;;;;14.50;7.00;;;;;;;22.16;65.75;100173.58;126299;1099;104152;-79
2021/08/18 04:18:44;;;;;;;16.27;6.87;;;;;;;22.18;65.64;100176.22;126342;1099;104217;-80
2021/08/18 04:21:19;;;;;;;14.55;6.95;;;;;;;22.15;64.99;100182.49;126239;1099;104223;-77
2021/08/18 04:23:49;;;;;;;13.07;6.77;;;;;;;22.10;65.41;100181.70;126315;1099;104580;-78
2021/08/18 04:26:20;;;;;;;12.20;6.57;;;;;;;22.10;65.41;100183.50;126347;1096;104858;-76
2021/08/18 04:28:50;;;;;;;11.53;6.73;;;;;;;22.10;65.82;100179.02;126262;1099;104245;-77
2021/08/18 04:31:21;;;;;;;13.03;6.53;;;;;;;22.08;65.64;100181.72;126156;1096;104149;-77
2021/08/18 04:33:52;;;;;;;14.23;6.40;;;;;;;22.06;65.98;100178.20;126276;1099;104144;-78
2021/08/18 04:36:23;;;;;;;12.10;6.40;;;;;;;22.06;65.54;100180.88;126222;1099;104268;-78
2021/08/18 04:38:54;;;;;;;13.80;7.13;;;;;;;22.03;66.71;100185.37;126271;1099;104185;-78
2021/08/18 04:41:25;;;;;;;15.33;7.87;;;;;;;21.98;66.47;100192.58;126236;1096;104146;-78
2021/08/18 04:43:56;;;;;;;14.80;7.30;;;;;;;21.92;67.14;100206.91;126328;1099;104246;-78
2021/08/18 04:46:27;;;;;;;19.40;7.80;;;;;;;21.85;67.52;100199.91;126208;1099;104239;-79
2021/08/18 04:48:58;;;;;;;17.07;7.67;;;;;;;21.78;67.79;100199.11;126158;1096;104181;-77
2021/08/18 04:51:29;;;;;;;16.20;8.57;;;;;;;21.75;68.40;100201.82;126077;1099;104229;-78
2021/08/18 04:54:00;;;;;;;20.20;9.17;;;;;;;21.72;68.33;100199.20;126082;1099;104162;-77
2021/08/18 04:56:30;;;;;;;17.73;8.90;;;;;;;21.70;68.30;100196.55;126195;1099;104130;-77
2021/08/18 04:59:01;;;;;;;15.50;8.70;;;;;;;21.69;69.05;100216.17;126260;1099;104242;-77
2021/08/18 05:01:31;;;;;;;21.17;9.17;;;;;;;21.69;68.57;100213.50;126105;1099;104659;-78
2021/08/18 05:04:03;;;;;;;19.87;9.13;;;;;;;21.75;68.59;100212.50;126227;1096;104130;-79
2021/08/18 05:06:34;;;;;;;18.97;9.30;;;;;;;21.82;69.28;100211.52;126113;1099;104184;-78
2021/08/18 05:09:05;;;;;;;16.43;9.53;;;;;;;21.93;69.08;100211.35;126244;1096;104134;-79
2021/08/18 05:11:36;;;;;;;17.43;9.30;;;;;;;22.07;68.69;100205.80;126056;1099;104316;-78
2021/08/18 05:14:06;;;;;;;19.50;9.53;;;;;;;22.16;69.22;100199.39;126114;1099;104179;-78
2021/08/18 05:16:37;;;;;;;21.07;9.73;;;;;;;22.21;69.51;100198.42;126239;1098;104134;-77
2021/08/18 05:19:07;;;;;;;20.47;9.93;;;;;;;22.29;69.03;100187.59;126100;1098;104178;-76
2021/08/18 05:21:40;;;;;;;18.13;8.70;;;;;;;22.40;68.98;100182.97;126240;1099;104146;-77
2021/08/18 05:24:11;;;;;;;16.80;9.13;;;;;;;22.52;68.74;100181.88;126083;1096;104194;-77
2021/08/18 05:26:42;;;;;;;18.07;9.47;;;;;;;22.68;69.05;100181.59;126031;1096;104168;-76
2021/08/18 05:29:14;;;;;;;18.10;8.77;;;;;;;22.77;68.29;100179.61;126175;1099;104169;-78
2021/08/18 05:31:47;;;;;;;17.63;9.10;;;;;;;22.82;68.40;100181.32;126222;1096;105292;-77
2021/08/18 05:34:20;;;;;;;18.85;10.03;;;;;;;22.83;68.36;100172.36;126242;1099;104343;-77
2021/08/18 05:36:52;;;;;;;17.53;8.47;;;;;;;22.87;68.56;100176.75;126197;1099;104175;-77
2021/08/18 05:39:25;;;;;;;18.55;9.40;;;;;;;22.94;68.32;100171.25;126201;1099;104156;-78
2021/08/18 05:41:58;;;;;;;17.37;9.47;;;;;;;23.05;68.26;100178.18;126309;1099;104268;-78
2021/08/18 05:44:31;;;;;;;17.20;9.07;;;;;;;23.09;68.58;100182.56;126333;1096;112809;-77
2021/08/18 05:47:05;;;;;;;18.73;9.60;;;;;;;23.10;68.18;100176.31;126257;1096;105052;-77
2021/08/18 05:49:37;;;;;;;17.77;9.00;;;;;;;23.13;67.81;100169.09;126172;1096;104248;-77
2021/08/18 05:52:10;;;;;;;16.67;8.20;;;;;;;23.18;67.87;100160.09;126156;1096;104299;-76
2021/08/18 05:54:43;;;;;;;16.43;8.60;;;;;;;23.26;68.12;100166.16;126312;1096;104207;-77
2021/08/18 05:57:14;;;;;;;16.90;8.73;;;;;;;23.30;67.58;100155.34;126112;1098;104654;-77
2021/08/18 05:59:46;;;;;;;19.50;8.47;;;;;;;23.37;67.32;100152.53;126174;1099;104252;-76
2021/08/18 06:02:19;;;;;;;15.63;7.65;;;;;;;23.44;67.08;100146.13;126148;1099;104229;-76
2021/08/18 06:04:53;;;;;;;15.90;8.07;;;;;;;23.55;66.87;100138.72;125964;1099;105519;-77
2021/08/18 06:07:27;;;;;;;14.20;7.73;;;;;;;23.68;66.59;100145.56;126082;1099;104203;-76
2021/08/18 06:09:58;;;;;;;15.87;8.43;;;;;;;23.74;66.33;100136.48;126300;1098;104968;-77
2021/08/18 06:12:33;;;;;;;14.57;8.57;;;;;;;23.83;66.42;100136.25;126195;1097;104136;-77
2021/08/18 06:15:07;;;;;;;15.37;7.93;;;;;;;23.96;66.13;100128.81;126027;1099;104215;-78
2021/08/18 06:17:40;;;;;;;17.10;8.43;;;;;;;24.03;65.65;100133.11;126144;1099;104162;-79
2021/08/18 06:20:16;;;;;;;14.17;7.73;;;;;;;24.04;65.72;100142.02;126223;1099;104172;-78
2021/08/18 06:22:55;;;;;;;17.30;8.50;;;;;;;24.08;65.54;100148.20;126109;1099;104190;-78
2021/08/18 06:25:28;;;;;;;18.60;8.40;;;;;;;24.04;65.36;100142.91;126043;1099;104201;-78
2021/08/18 06:28:02;;;;;;;14.30;7.63;;;;;;;24.05;65.25;100144.66;126116;1099;104417;-79
2021/08/18 06:30:35;;;;;;;20.10;9.10;;;;;;;24.07;65.31;100151.78;126241;1099;104191;-80
2021/08/18 06:33:09;;;;;;;15.60;8.23;;;;;;;24.10;65.22;100151.70;126249;1098;104175;-80
2021/08/18 06:35:42;;;;;;;19.30;8.87;;;;;;;24.20;65.17;100153.24;126205;1099;111704;-80
2021/08/18 06:38:16;;;;;;;17.13;8.63;;;;;;;24.32;64.95;100158.25;126269;1099;102284;-78
2021/08/18 06:40:50;;;;;;;19.63;8.87;;;;;;;24.34;64.89;100153.75;126199;1099;104278;-78
2021/08/18 06:43:23;;;;;;;16.00;9.13;;;;;;;24.34;64.92;100150.17;126070;1099;104242;-79
2021/08/18 06:46:01;;;;;;;16.83;9.10;;;;;;;24.30;64.56;100160.11;126117;1099;104147;-81
2021/08/18 06:48:36;;;;;;;16.33;9.50;;;;;;;24.26;64.86;100160.23;126031;1099;104201;-80
2021/08/18 06:51:12;;;;;;;19.07;9.50;;;;;;;24.20;64.84;100156.80;126051;1097;104245;-78
2021/08/18 06:53:45;;;;;;;19.60;9.78;;;;;;;24.22;64.80;100159.44;126110;1099;104169;-79
2021/08/18 06:56:17;;;;;;;21.00;9.30;;;;;;;24.23;64.92;100155.81;126123;1099;107701;-78
2021/08/18 06:58:52;;;;;;;19.57;8.63;;;;;;;24.24;64.73;100154.91;126051;1099;104242;-78
2021/08/18 07:01:26;;;;;;;16.67;8.40;;;;;;;24.33;64.77;100159.16;126267;1099;104140;-78
2021/08/18 07:04:05;;;;;;;19.00;9.07;;;;;;;24.42;64.43;100148.19;126323;1096;104370;-79
2021/08/18 07:06:44;;;;;;;16.13;9.10;;;;;;;24.60;64.83;100143.27;126159;1096;118246;-79
2021/08/18 07:09:16;;;;;;;21.50;9.13;;;;;;;24.80;64.23;100143.57;126289;1095;104104;-77
2021/08/18 07:11:47;;;;;;;14.83;8.27;;;;;;;25.01;64.20;100136.71;126298;1096;104159;-77
2021/08/18 07:14:23;;;;;;;16.57;8.50;;;;;;;25.18;63.55;100130.84;126272;1096;104133;-76
2021/08/18 07:16:56;;;;;;;16.97;9.00;;;;;;;25.36;63.12;100132.09;126153;1099;104249;-76
2021/08/18 07:19:32;;;;;;;18.87;9.37;;;;;;;25.47;62.95;100137.12;126078;1099;104246;-78
2021/08/18 07:22:04;;;;;;;19.10;9.27;;;;;;;25.62;63.55;100127.70;126006;1098;104155;-79
2021/08/18 07:24:38;;;;;;;18.75;8.45;;;;;;;25.78;62.96;100118.19;125975;1099;104502;-78
2021/08/18 07:27:11;;;;;;;21.83;8.83;;;;;;;25.90;62.19;100121.39;126173;1097;112033;-77
2021/08/18 07:29:43;;;;;;;17.80;8.78;;;;;;;26.00;61.60;100120.19;126194;1095;104659;-77
2021/08/18 07:32:17;;;;;;;21.10;8.70;;;;;;;26.01;61.64;100119.27;126154;1099;104165;-78
2021/08/18 07:34:50;;;;;;;18.50;8.53;;;;;;;26.05;61.52;100122.72;126112;1096;104389;-77
2021/08/18 07:37:22;;;;;;;15.53;7.67;;;;;;;26.20;61.20;100124.88;126154;1099;104140;-77
2021/08/18 07:39:56;;;;;;;17.47;8.10;;;;;;;26.40;59.85;100121.48;126161;1099;104140;-78
2021/08/18 07:42:30;;;;;;;14.83;7.40;;;;;;;26.40;59.43;100113.42;126365;1099;104245;-77
2021/08/18 07:45:03;;;;;;;13.00;7.90;;;;;;;26.33;58.83;100109.19;126199;1099;104296;-78
2021/08/18 07:47:36;;;;;;;13.03;7.77;;;;;;;26.19;58.91;100109.67;126164;1099;107904;-77
2021/08/18 07:50:12;;;;;;;13.67;8.23;;;;;;;26.10;59.58;100110.89;126170;1099;105131;-77
2021/08/18 07:52:45;;;;;;;13.27;7.60;;;;;;;26.00;58.96;100122.88;126249;1096;104133;-77
2021/08/18 07:55:19;;;;;;;18.77;7.37;;;;;;;25.81;58.87;100134.22;126160;1099;104200;-78
2021/08/18 07:57:57;;;;;;;14.20;7.40;;;;;;;25.67;59.12;100143.67;126110;1099;118270;-78
2021/08/18 08:00:28;;;;;;;14.75;7.40;;;;;;;25.51;59.38;100138.80;126191;1098;104296;-78
2021/08/18 08:03:16;;;;;;;13.35;7.92;;;;;;;25.45;59.52;100136.30;126149;1099;104156;-79
2021/08/18 08:05:48;;;;;;;16.77;8.23;;;;;;;25.44;59.30;100126.47;126068;1099;104184;-78
2021/08/18 08:08:21;;;;;;;19.23;8.78;;;;;;;25.38;59.83;100129.35;126138;1099;104341;-79
2021/08/18 08:10:56;;;;;;;15.65;8.25;;;;;;;25.37;59.97;100131.17;126194;1099;104194;-78
2021/08/18 08:13:32;;;;;;;15.33;8.33;;;;;;;25.48;60.07;100139.76;126184;1099;104175;-76
2021/08/18 08:16:13;;;;;;;14.67;8.43;;;;;;;25.53;59.53;100133.38;125293;1099;104188;-79
2021/08/18 08:18:50;;;;;;;19.30;8.53;;;;;;;25.57;59.42;100145.75;125361;1099;111671;-80
2021/08/18 08:21:24;;;;;;;15.77;8.70;;;;;;;25.62;59.64;100154.57;126113;1099;104179;-79
2021/08/18 08:24:00;;;;;;;16.63;9.00;;;;;;;25.60;59.33;100143.88;126140;1099;104652;-78
2021/08/18 08:26:36;;;;;;;15.27;8.30;;;;;;;25.55;59.54;100144.94;125987;1099;104497;-79
2021/08/18 08:29:11;;;;;;;17.63;8.90;;;;;;;25.56;59.42;100141.33;125445;1099;104245;-81
2021/08/18 08:31:44;;;;;;;15.60;8.43;;;;;;;25.57;59.83;100151.12;125240;1099;104191;-79
2021/08/18 08:34:19;;;;;;;19.40;8.63;;;;;;;25.61;59.52;100137.55;126082;1099;104291;-78
2021/08/18 08:36:50;;;;;;;16.10;9.07;;;;;;;25.63;59.76;100141.09;125271;1099;104312;-77
2021/08/18 08:39:21;;;;;;;13.03;8.20;;;;;;;25.61;59.55;100134.86;125338;1099;104305;-79
2021/08/18 08:41:54;;;;;;;16.37;9.17;;;;;;;25.64;60.18;100129.39;126058;1099;104305;-78
2021/08/18 08:44:30;;;;;;;16.87;9.00;;;;;;;25.71;60.18;100137.25;126088;1099;104194;-78
2021/08/18 08:47:06;;;;;;;17.93;9.13;;;;;;;25.71;60.19;100131.87;125299;1099;104178;-77
2021/08/18 08:49:40;;;;;;;21.57;9.87;;;;;;;25.68;59.80;100137.35;126286;1099;104207;-76
2021/08/18 08:52:14;;;;;;;18.17;8.83;;;;;;;25.66;59.76;100137.41;126231;1099;104422;-77
2021/08/18 08:54:49;;;;;;;15.67;9.00;;;;;;;25.69;60.08;100142.67;126203;1099;104166;-79
2021/08/18 08:57:24;;;;;;;19.43;9.30;;;;;;;25.64;60.02;100150.88;126254;1099;104182;-77
2021/08/18 08:59:55;;;;;;;;;;;;;;;25.56;59.86;100160.14;126320;1099;104153;-80
2021/08/18 09:02:32;;;;;;;17.53;9.50;;;;;;;25.44;59.77;100148.83;126187;1099;104181;-78
2021/08/18 09:05:04;;;;;;;21.97;10.17;;;;;;;25.32;60.47;100159.08;126006;1097;104156;-76
2021/08/18 09:07:37;;;;;;;;;;;;;;;25.19;60.09;100159.42;126145;1099;104277;-79
2021/08/18 09:10:16;;;;;;;19.23;9.10;;;;;;;25.15;60.02;100152.41;126244;1096;104254;-78
2021/08/18 09:12:53;;;;;;;21.67;9.50;;;;;;;25.11;60.58;100151.59;126289;1096;104130;-79
2021/08/18 09:15:26;;;;;;;22.27;9.37;;;;;;;25.17;60.49;100152.36;126082;1099;104253;-78
2021/08/18 09:17:57;;;;;;;21.35;10.00;;;;;;;25.23;60.68;100152.17;126073;1099;104214;-77
2021/08/18 09:20:30;;;;;;;20.17;9.57;;;;;;;25.33;61.06;100152.80;126199;1097;104198;-77
2021/08/18 09:23:04;;;;;;;17.70;9.70;;;;;;;25.41;61.02;100156.11;126259;1099;104181;-76
2021/08/18 09:25:40;;;;;;;16.07;9.23;;;;;;;25.47;61.22;100148.73;126170;1099;104152;-79
2021/08/18 09:28:22;;;;;;;15.83;9.33;;;;;;;25.57;60.97;100145.75;126121;1098;104297;-77
2021/08/18 09:31:00;;;;;;;18.70;11.07;;;;;;;25.63;60.64;100145.56;126085;1099;104303;-77
2021/08/18 09:33:37;;;;;;;18.87;10.60;;;;;;;25.59;60.96;100146.61;125930;1099;104171;-81
2021/08/18 09:36:25;;;;;;;18.50;10.70;;;;;;;25.57;60.32;100145.75;125933;1096;104211;-77
2021/08/18 09:39:23;;;;;;;25.23;11.20;;;;;;;25.59;61.12;100143.92;125985;1096;104159;-77
2021/08/18 09:41:56;;;;;;;20.73;11.00;;;;;;;25.67;60.79;100147.23;125979;1099;104219;-79
2021/08/18 09:44:29;;;;;;;21.13;10.47;;;;;;;25.72;59.97;100150.64;126188;1099;104592;-78
2021/08/18 09:47:12;;;;;;;16.37;10.10;;;;;;;25.79;59.90;100140.59;126078;1097;104178;-78
2021/08/18 09:49:44;;;;;;;17.37;9.77;;;;;;;25.84;59.67;100142.17;126273;1095;104201;-78
2021/08/18 09:52:23;;;;;;;20.60;10.38;;;;;;;25.82;60.03;100129.70;126248;1096;104363;-80
2021/08/18 09:55:04;;;;;;;22.37;11.40;;;;;;;25.80;59.77;100126.20;126271;1099;104178;-79
2021/08/18 09:57:37;;;;;;;19.90;10.33;;;;;;;25.87;59.43;100132.24;126125;1099;104255;-79
2021/08/18 10:00:11;;;;;;;19.07;10.60;;;;;;;25.96;59.62;100145.37;126140;1099;104237;-79
2021/08/18 10:02:44;;;;;;;18.43;10.23;;;;;;;26.10;59.30;100143.16;126227;1098;104259;-80
2021/08/18 10:05:21;;;;;;;15.63;9.90;;;;;;;26.12;59.10;100143.97;126239;1099;104179;-79
2021/08/18 10:07:57;;;;;;;18.60;10.40;;;;;;;26.12;58.65;100143.10;126093;1099;104210;-79
2021/08/18 10:10:30;;;;;;;18.13;10.50;;;;;;;26.19;59.09;100132.08;125979;1099;104150;-79
2021/08/18 10:13:03;;;;;;;19.37;10.23;;;;;;;26.21;58.91;100134.72;126147;1096;104207;-79
2021/08/18 10:15:38;;;;;;;20.52;10.88;;;;;;;26.27;58.90;100137.19;126177;1096;104166;-79
2021/08/18 10:18:29;;;;;;;22.40;10.73;;;;;;;26.27;58.65;100138.98;126010;1096;104141;-79
2021/08/18 10:21:09;;;;;;;18.77;10.33;;;;;;;26.29;58.60;100139.83;125959;1099;119018;-80
2021/08/18 10:23:55;;;;;;;18.03;10.90;;;;;;;26.28;58.68;100138.06;126000;1097;104175;-79
2021/08/18 10:26:53;;;;;;;21.27;11.60;;;;;;;26.35;58.99;100140.48;126192;1098;104133;-79
2021/08/18 10:29:40;;;;;;;19.53;10.60;;;;;;;26.35;59.11;100134.20;126041;1099;105718;-81
2021/08/18 10:32:23;;;;;;;20.47;10.63;;;;;;;26.46;58.50;100139.20;126125;1099;104144;-79
2021/08/18 10:34:58;;;;;;;19.17;9.90;;;;;;;26.58;58.72;100136.07;125943;1099;104265;-79
2021/08/18 10:37:56;;;;;;;;;;;;;;;;;;;;;
2021/08/18 10:40:46;;;;;;;21.13;10.10;;;;;;;26.89;58.29;100135.84;125931;1099;104408;-80
2021/08/18 10:43:41;;;;;;;20.30;9.93;;;;;;;26.96;58.17;100139.20;126061;1098;104195;-80
2021/08/18 10:46:17;;;;;;;18.73;10.30;;;;;;;26.85;57.96;100127.97;126078;1099;104412;-79
2021/08/18 10:49:05;;;;;;;20.07;10.93;;;;;;;26.75;57.90;100132.80;126144;1099;104322;-79
2021/08/18 10:51:54;;;;;;;21.73;10.60;;;;;;;26.71;57.83;100118.59;126050;1099;102314;-79
2021/08/18 10:54:43;;;;;;;17.93;10.67;;;;;;;26.61;57.52;100125.20;126031;1098;104294;-79
2021/08/18 10:57:40;;;;;;;23.10;11.03;;;;;;;26.49;57.96;100118.47;126110;1099;104278;-79
2021/08/18 11:00:23;;;;;;;19.43;10.53;;;;;;;26.51;58.03;100124.66;126159;1099;104229;-79
2021/08/18 11:03:04;;;;;;;24.70;10.87;;;;;;;26.57;57.90;100122.67;126128;1099;103742;-79
2021/08/18 11:05:53;;;;;;;18.85;10.05;;;;;;;26.60;57.60;100117.18;126136;1099;104201;-80
2021/08/18 11:08:40;;;;;;;17.00;9.97;;;;;;;26.55;58.01;100112.87;126072;1096;104245;-79
2021/08/18 11:11:23;;;;;;;17.50;10.70;;;;;;;26.59;57.32;100120.83;126201;1096;104142;-79
2021/08/18 11:14:10;;;;;;;17.70;11.03;;;;;;;26.55;57.31;100112.87;126259;1099;104226;-80
2021/08/18 11:16:44;;;;;;;19.27;10.67;;;;;;;26.53;57.80;100125.48;126330;1098;104143;-78
2021/08/18 11:19:18;;;;;;;21.07;11.17;;;;;;;26.43;57.71;100121.38;126198;1099;104271;-80
2021/08/18 11:21:50;;;;;;;19.73;10.60;;;;;;;26.28;58.54;100133.55;126239;1096;104153;-78
2021/08/18 11:24:23;;;;;;;20.77;10.80;;;;;;;26.15;58.45;100132.24;126228;1096;104150;-77
2021/08/18 11:26:58;;;;;;;24.98;11.22;;;;;;;26.06;58.62;100130.73;126176;1096;104150;-78
2021/08/18 11:29:35;;;;;;;20.90;10.43;;;;;;;26.03;59.29;100136.22;126231;1096;104281;-79
2021/08/18 11:32:10;;;;;;;20.00;10.83;;;;;;;25.84;59.41;100139.48;126176;1096;104306;-80